sensor_id;sensor_type;location;lat;lon;timestamp;P1;durP1;ratioP1;P2;durP2;ratioP2
46753;SDS011;32500;50.620;3.400;2024-02-16T00:00:09;148.23;;;58.00;;
46753;SDS011;32500;50.620;3.400;2024-02-16T00:02:38;148.55;;;58.17;;
46753;SDS011;32500;50.620;3.400;2024-02-16T00:05:06;149.77;;;58.58;;
46753;SDS011;32500;50.620;3.400;2024-02-16T00:07:33;148.52;;;58.08;;
46753;SDS011;32500;50.620;3.400;2024-02-16T00:09:59;149.23;;;58.38;;
46753;SDS011;32500;50.620;3.400;2024-02-16T00:12:25;149.02;;;58.15;;
46753;SDS011;32500;50.620;3.400;2024-02-16T00:14:51;150.63;;;58.88;;
46753;SDS011;32500;50.620;3.400;2024-02-16T00:17:16;149.55;;;58.10;;
46753;SDS011;32500;50.620;3.400;2024-02-16T00:19:42;147.85;;;57.83;;
46753;SDS011;32500;50.620;3.400;2024-02-16T00:22:08;149.15;;;58.28;;
46753;SDS011;32500;50.620;3.400;2024-02-16T00:24:33;150.18;;;58.03;;
46753;SDS011;32500;50.620;3.400;2024-02-16T00:27:01;147.70;;;57.90;;
46753;SDS011;32500;50.620;3.400;2024-02-16T00:29:30;149.57;;;58.30;;
46753;SDS011;32500;50.620;3.400;2024-02-16T00:31:57;148.07;;;58.15;;
46753;SDS011;32500;50.620;3.400;2024-02-16T00:34:24;149.40;;;58.42;;
46753;SDS011;32500;50.620;3.400;2024-02-16T00:36:50;148.20;;;57.75;;
46753;SDS011;32500;50.620;3.400;2024-02-16T00:39:17;149.18;;;58.08;;
46753;SDS011;32500;50.620;3.400;2024-02-16T00:41:43;147.88;;;57.90;;
46753;SDS011;32500;50.620;3.400;2024-02-16T00:44:09;148.52;;;58.22;;
46753;SDS011;32500;50.620;3.400;2024-02-16T00:46:38;148.63;;;58.08;;
46753;SDS011;32500;50.620;3.400;2024-02-16T00:49:03;147.93;;;58.05;;
46753;SDS011;32500;50.620;3.400;2024-02-16T00:51:29;148.38;;;57.97;;
46753;SDS011;32500;50.620;3.400;2024-02-16T00:53:55;148.90;;;57.95;;
46753;SDS011;32500;50.620;3.400;2024-02-16T00:56:21;148.88;;;57.85;;
46753;SDS011;32500;50.620;3.400;2024-02-16T00:58:46;147.85;;;57.92;;
46753;SDS011;32500;50.620;3.400;2024-02-16T01:01:12;147.90;;;57.97;;
46753;SDS011;32500;50.620;3.400;2024-02-16T01:03:39;149.57;;;58.05;;
46753;SDS011;32500;50.620;3.400;2024-02-16T01:06:05;147.35;;;57.67;;
46753;SDS011;32500;50.620;3.400;2024-02-16T01:08:31;146.73;;;57.80;;
46753;SDS011;32500;50.620;3.400;2024-02-16T01:10:57;147.95;;;57.55;;
46753;SDS011;32500;50.620;3.400;2024-02-16T01:13:23;148.30;;;58.03;;
46753;SDS011;32500;50.620;3.400;2024-02-16T01:15:49;147.73;;;58.05;;
46753;SDS011;32500;50.620;3.400;2024-02-16T01:18:15;147.90;;;57.85;;
46753;SDS011;32500;50.620;3.400;2024-02-16T01:20:40;148.85;;;57.75;;
46753;SDS011;32500;50.620;3.400;2024-02-16T01:23:06;146.77;;;57.97;;
46753;SDS011;32500;50.620;3.400;2024-02-16T01:25:32;147.68;;;58.05;;
46753;SDS011;32500;50.620;3.400;2024-02-16T01:27:58;147.75;;;57.75;;
46753;SDS011;32500;50.620;3.400;2024-02-16T01:30:24;148.05;;;57.78;;
46753;SDS011;32500;50.620;3.400;2024-02-16T01:32:49;148.43;;;58.38;;
46753;SDS011;32500;50.620;3.400;2024-02-16T01:35:16;147.65;;;57.80;;
46753;SDS011;32500;50.620;3.400;2024-02-16T01:37:42;147.25;;;57.90;;
46753;SDS011;32500;50.620;3.400;2024-02-16T01:40:11;148.70;;;58.42;;
46753;SDS011;32500;50.620;3.400;2024-02-16T01:42:42;147.50;;;57.55;;
46753;SDS011;32500;50.620;3.400;2024-02-16T01:45:08;147.50;;;57.70;;
46753;SDS011;32500;50.620;3.400;2024-02-16T01:47:36;147.00;;;58.05;;
46753;SDS011;32500;50.620;3.400;2024-02-16T01:50:02;147.93;;;58.05;;
46753;SDS011;32500;50.620;3.400;2024-02-16T01:52:28;146.80;;;57.72;;
46753;SDS011;32500;50.620;3.400;2024-02-16T01:54:56;148.30;;;58.47;;
46753;SDS011;32500;50.620;3.400;2024-02-16T01:57:23;147.88;;;57.83;;
46753;SDS011;32500;50.620;3.400;2024-02-16T01:59:49;146.60;;;57.53;;
46753;SDS011;32500;50.620;3.400;2024-02-16T02:02:15;147.60;;;57.88;;
46753;SDS011;32500;50.620;3.400;2024-02-16T02:04:41;148.38;;;57.83;;
46753;SDS011;32500;50.620;3.400;2024-02-16T02:07:11;147.80;;;57.88;;
46753;SDS011;32500;50.620;3.400;2024-02-16T02:09:37;148.65;;;58.60;;
46753;SDS011;32500;50.620;3.400;2024-02-16T02:12:03;148.95;;;57.95;;
46753;SDS011;32500;50.620;3.400;2024-02-16T02:14:29;147.30;;;57.90;;
46753;SDS011;32500;50.620;3.400;2024-02-16T02:16:54;147.65;;;57.90;;
46753;SDS011;32500;50.620;3.400;2024-02-16T02:19:21;147.88;;;57.75;;
46753;SDS011;32500;50.620;3.400;2024-02-16T02:21:46;147.90;;;57.70;;
46753;SDS011;32500;50.620;3.400;2024-02-16T02:24:12;147.98;;;58.03;;
46753;SDS011;32500;50.620;3.400;2024-02-16T02:26:38;146.25;;;57.42;;
46753;SDS011;32500;50.620;3.400;2024-02-16T02:29:04;147.65;;;58.20;;
46753;SDS011;32500;50.620;3.400;2024-02-16T02:31:30;146.38;;;57.33;;
46753;SDS011;32500;50.620;3.400;2024-02-16T02:33:56;147.10;;;57.83;;
46753;SDS011;32500;50.620;3.400;2024-02-16T02:36:21;149.27;;;58.15;;
46753;SDS011;32500;50.620;3.400;2024-02-16T02:38:47;147.70;;;57.78;;
46753;SDS011;32500;50.620;3.400;2024-02-16T02:41:13;147.27;;;57.75;;
46753;SDS011;32500;50.620;3.400;2024-02-16T02:43:41;147.13;;;57.67;;
46753;SDS011;32500;50.620;3.400;2024-02-16T02:46:07;147.48;;;57.72;;
46753;SDS011;32500;50.620;3.400;2024-02-16T02:48:32;146.20;;;57.50;;
46753;SDS011;32500;50.620;3.400;2024-02-16T02:50:58;147.80;;;58.13;;
46753;SDS011;32500;50.620;3.400;2024-02-16T02:53:27;147.07;;;57.78;;
46753;SDS011;32500;50.620;3.400;2024-02-16T02:55:54;148.45;;;57.28;;
46753;SDS011;32500;50.620;3.400;2024-02-16T02:58:20;147.65;;;57.72;;
46753;SDS011;32500;50.620;3.400;2024-02-16T03:00:46;146.45;;;57.55;;
46753;SDS011;32500;50.620;3.400;2024-02-16T03:03:11;147.65;;;57.85;;
46753;SDS011;32500;50.620;3.400;2024-02-16T03:05:40;147.25;;;57.83;;
46753;SDS011;32500;50.620;3.400;2024-02-16T03:08:09;146.95;;;57.55;;
46753;SDS011;32500;50.620;3.400;2024-02-16T03:10:36;148.10;;;57.75;;
46753;SDS011;32500;50.620;3.400;2024-02-16T03:13:02;147.65;;;57.78;;
46753;SDS011;32500;50.620;3.400;2024-02-16T03:15:28;145.82;;;57.35;;
46753;SDS011;32500;50.620;3.400;2024-02-16T03:17:57;146.32;;;57.38;;
46753;SDS011;32500;50.620;3.400;2024-02-16T03:20:23;147.77;;;58.17;;
46753;SDS011;32500;50.620;3.400;2024-02-16T03:22:48;146.02;;;57.20;;
46753;SDS011;32500;50.620;3.400;2024-02-16T03:25:14;147.30;;;57.85;;
46753;SDS011;32500;50.620;3.400;2024-02-16T03:27:40;147.00;;;57.67;;
46753;SDS011;32500;50.620;3.400;2024-02-16T03:30:07;147.48;;;57.65;;
46753;SDS011;32500;50.620;3.400;2024-02-16T03:32:33;148.07;;;58.28;;
46753;SDS011;32500;50.620;3.400;2024-02-16T03:34:59;146.73;;;57.67;;
46753;SDS011;32500;50.620;3.400;2024-02-16T03:37:25;146.82;;;57.85;;
46753;SDS011;32500;50.620;3.400;2024-02-16T03:39:51;146.27;;;57.33;;
46753;SDS011;32500;50.620;3.400;2024-02-16T03:42:18;146.55;;;57.60;;
46753;SDS011;32500;50.620;3.400;2024-02-16T03:44:44;146.48;;;57.20;;
46753;SDS011;32500;50.620;3.400;2024-02-16T03:47:10;146.90;;;57.33;;
46753;SDS011;32500;50.620;3.400;2024-02-16T03:49:37;146.15;;;56.88;;
46753;SDS011;32500;50.620;3.400;2024-02-16T03:52:03;147.55;;;57.58;;
46753;SDS011;32500;50.620;3.400;2024-02-16T03:54:28;146.95;;;57.45;;
46753;SDS011;32500;50.620;3.400;2024-02-16T03:56:54;146.85;;;57.33;;
46753;SDS011;32500;50.620;3.400;2024-02-16T03:59:20;146.77;;;56.83;;
46753;SDS011;32500;50.620;3.400;2024-02-16T04:01:46;146.25;;;57.10;;
46753;SDS011;32500;50.620;3.400;2024-02-16T04:04:12;147.68;;;57.08;;
46753;SDS011;32500;50.620;3.400;2024-02-16T04:06:38;145.85;;;56.63;;
46753;SDS011;32500;50.620;3.400;2024-02-16T04:09:04;147.52;;;57.25;;
46753;SDS011;32500;50.620;3.400;2024-02-16T04:11:33;145.73;;;56.75;;
46753;SDS011;32500;50.620;3.400;2024-02-16T04:14:00;145.32;;;56.58;;
46753;SDS011;32500;50.620;3.400;2024-02-16T04:16:26;146.68;;;57.17;;
46753;SDS011;32500;50.620;3.400;2024-02-16T04:18:51;145.98;;;56.90;;
46753;SDS011;32500;50.620;3.400;2024-02-16T04:21:17;147.35;;;57.03;;
46753;SDS011;32500;50.620;3.400;2024-02-16T04:23:43;147.07;;;57.28;;
46753;SDS011;32500;50.620;3.400;2024-02-16T04:26:09;145.93;;;56.80;;
46753;SDS011;32500;50.620;3.400;2024-02-16T04:28:35;145.90;;;56.55;;
46753;SDS011;32500;50.620;3.400;2024-02-16T04:31:01;146.15;;;57.05;;
46753;SDS011;32500;50.620;3.400;2024-02-16T04:33:26;146.50;;;57.10;;
46753;SDS011;32500;50.620;3.400;2024-02-16T04:35:52;145.98;;;56.67;;
46753;SDS011;32500;50.620;3.400;2024-02-16T04:38:18;146.35;;;56.72;;
46753;SDS011;32500;50.620;3.400;2024-02-16T04:40:44;146.50;;;56.97;;
46753;SDS011;32500;50.620;3.400;2024-02-16T04:43:11;146.40;;;56.92;;
46753;SDS011;32500;50.620;3.400;2024-02-16T04:45:36;146.65;;;57.15;;
46753;SDS011;32500;50.620;3.400;2024-02-16T04:48:03;146.15;;;56.85;;
46753;SDS011;32500;50.620;3.400;2024-02-16T04:50:30;146.05;;;57.13;;
46753;SDS011;32500;50.620;3.400;2024-02-16T04:52:57;146.60;;;57.13;;
46753;SDS011;32500;50.620;3.400;2024-02-16T04:55:23;146.23;;;56.88;;
46753;SDS011;32500;50.620;3.400;2024-02-16T04:57:48;146.80;;;57.13;;
46753;SDS011;32500;50.620;3.400;2024-02-16T05:00:14;145.25;;;56.60;;
46753;SDS011;32500;50.620;3.400;2024-02-16T05:02:40;145.38;;;56.75;;
46753;SDS011;32500;50.620;3.400;2024-02-16T05:05:06;146.25;;;56.72;;
46753;SDS011;32500;50.620;3.400;2024-02-16T05:07:32;145.52;;;56.83;;
46753;SDS011;32500;50.620;3.400;2024-02-16T05:09:58;146.25;;;56.92;;
46753;SDS011;32500;50.620;3.400;2024-02-16T05:12:24;146.82;;;57.15;;
46753;SDS011;32500;50.620;3.400;2024-02-16T05:14:51;145.68;;;56.63;;
46753;SDS011;32500;50.620;3.400;2024-02-16T05:17:18;146.75;;;56.95;;
46753;SDS011;32500;50.620;3.400;2024-02-16T05:19:44;145.57;;;56.92;;
46753;SDS011;32500;50.620;3.400;2024-02-16T05:22:10;145.40;;;56.85;;
46753;SDS011;32500;50.620;3.400;2024-02-16T05:24:36;146.23;;;57.13;;
46753;SDS011;32500;50.620;3.400;2024-02-16T05:27:02;145.70;;;56.80;;
46753;SDS011;32500;50.620;3.400;2024-02-16T05:29:28;145.45;;;56.80;;
46753;SDS011;32500;50.620;3.400;2024-02-16T05:31:53;146.15;;;56.88;;
46753;SDS011;32500;50.620;3.400;2024-02-16T05:34:19;147.85;;;57.15;;
46753;SDS011;32500;50.620;3.400;2024-02-16T05:36:45;146.27;;;56.95;;
46753;SDS011;32500;50.620;3.400;2024-02-16T05:39:11;145.88;;;56.65;;
46753;SDS011;32500;50.620;3.400;2024-02-16T05:41:51;145.95;;;56.72;;
46753;SDS011;32500;50.620;3.400;2024-02-16T05:44:17;147.68;;;56.85;;
46753;SDS011;32500;50.620;3.400;2024-02-16T05:46:44;145.60;;;56.90;;
46753;SDS011;32500;50.620;3.400;2024-02-16T05:49:10;146.30;;;57.22;;
46753;SDS011;32500;50.620;3.400;2024-02-16T05:51:36;145.95;;;56.92;;
46753;SDS011;32500;50.620;3.400;2024-02-16T05:54:04;146.95;;;56.85;;
46753;SDS011;32500;50.620;3.400;2024-02-16T05:56:30;144.70;;;56.22;;
46753;SDS011;32500;50.620;3.400;2024-02-16T05:58:58;145.50;;;56.50;;
46753;SDS011;32500;50.620;3.400;2024-02-16T06:01:28;146.40;;;57.10;;
46753;SDS011;32500;50.620;3.400;2024-02-16T06:03:54;145.00;;;56.50;;
46753;SDS011;32500;50.620;3.400;2024-02-16T06:06:20;146.48;;;57.22;;
46753;SDS011;32500;50.620;3.400;2024-02-16T06:08:46;145.45;;;56.83;;
46753;SDS011;32500;50.620;3.400;2024-02-16T06:11:11;145.98;;;57.00;;
46753;SDS011;32500;50.620;3.400;2024-02-16T06:13:37;146.52;;;57.08;;
46753;SDS011;32500;50.620;3.400;2024-02-16T06:16:05;146.90;;;57.35;;
46753;SDS011;32500;50.620;3.400;2024-02-16T06:18:35;146.40;;;56.83;;
46753;SDS011;32500;50.620;3.400;2024-02-16T06:21:01;144.63;;;56.35;;
46753;SDS011;32500;50.620;3.400;2024-02-16T06:23:27;146.10;;;56.85;;
46753;SDS011;32500;50.620;3.400;2024-02-16T06:25:52;144.32;;;56.05;;
46753;SDS011;32500;50.620;3.400;2024-02-16T06:28:18;145.75;;;56.95;;
46753;SDS011;32500;50.620;3.400;2024-02-16T06:30:44;144.63;;;56.53;;
46753;SDS011;32500;50.620;3.400;2024-02-16T06:33:09;145.48;;;56.60;;
46753;SDS011;32500;50.620;3.400;2024-02-16T06:35:35;146.43;;;57.08;;
46753;SDS011;32500;50.620;3.400;2024-02-16T06:38:00;147.55;;;56.97;;
46753;SDS011;32500;50.620;3.400;2024-02-16T06:40:26;148.25;;;56.95;;
46753;SDS011;32500;50.620;3.400;2024-02-16T06:42:52;144.80;;;56.33;;
46753;SDS011;32500;50.620;3.400;2024-02-16T06:45:18;145.98;;;56.85;;
46753;SDS011;32500;50.620;3.400;2024-02-16T06:47:45;148.50;;;56.67;;
46753;SDS011;32500;50.620;3.400;2024-02-16T06:50:10;148.32;;;56.55;;
46753;SDS011;32500;50.620;3.400;2024-02-16T06:52:36;146.85;;;56.47;;
46753;SDS011;32500;50.620;3.400;2024-02-16T06:55:02;147.70;;;57.13;;
46753;SDS011;32500;50.620;3.400;2024-02-16T06:57:28;147.93;;;57.22;;
46753;SDS011;32500;50.620;3.400;2024-02-16T06:59:54;147.18;;;57.08;;
46753;SDS011;32500;50.620;3.400;2024-02-16T07:02:22;149.13;;;57.05;;
46753;SDS011;32500;50.620;3.400;2024-02-16T07:04:47;149.07;;;57.10;;
46753;SDS011;32500;50.620;3.400;2024-02-16T07:07:13;148.52;;;57.42;;
46753;SDS011;32500;50.620;3.400;2024-02-16T07:09:39;148.10;;;57.22;;
46753;SDS011;32500;50.620;3.400;2024-02-16T07:12:05;146.77;;;56.65;;
46753;SDS011;32500;50.620;3.400;2024-02-16T07:14:31;148.45;;;57.13;;
46753;SDS011;32500;50.620;3.400;2024-02-16T07:16:57;149.82;;;57.03;;
46753;SDS011;32500;50.620;3.400;2024-02-16T07:19:23;150.52;;;57.42;;
46753;SDS011;32500;50.620;3.400;2024-02-16T07:21:49;147.85;;;57.08;;
46753;SDS011;32500;50.620;3.400;2024-02-16T07:24:15;149.65;;;57.65;;
46753;SDS011;32500;50.620;3.400;2024-02-16T07:26:41;148.82;;;57.00;;
46753;SDS011;32500;50.620;3.400;2024-02-16T07:29:07;149.60;;;57.35;;
46753;SDS011;32500;50.620;3.400;2024-02-16T07:31:33;150.88;;;57.50;;
46753;SDS011;32500;50.620;3.400;2024-02-16T07:33:59;150.68;;;57.80;;
46753;SDS011;32500;50.620;3.400;2024-02-16T07:36:25;149.13;;;57.88;;
46753;SDS011;32500;50.620;3.400;2024-02-16T07:38:52;154.40;;;57.78;;
46753;SDS011;32500;50.620;3.400;2024-02-16T07:41:18;150.65;;;58.03;;
46753;SDS011;32500;50.620;3.400;2024-02-16T07:43:44;149.27;;;57.55;;
46753;SDS011;32500;50.620;3.400;2024-02-16T07:46:09;152.88;;;57.42;;
46753;SDS011;32500;50.620;3.400;2024-02-16T07:48:35;151.40;;;57.25;;
46753;SDS011;32500;50.620;3.400;2024-02-16T07:51:01;150.68;;;57.30;;
46753;SDS011;32500;50.620;3.400;2024-02-16T07:53:28;151.35;;;57.38;;
46753;SDS011;32500;50.620;3.400;2024-02-16T07:55:54;155.27;;;57.72;;
46753;SDS011;32500;50.620;3.400;2024-02-16T07:58:19;157.73;;;57.72;;
46753;SDS011;32500;50.620;3.400;2024-02-16T08:00:45;154.57;;;57.67;;
46753;SDS011;32500;50.620;3.400;2024-02-16T08:03:11;150.40;;;57.78;;
46753;SDS011;32500;50.620;3.400;2024-02-16T08:05:37;150.73;;;57.67;;
46753;SDS011;32500;50.620;3.400;2024-02-16T08:08:03;152.07;;;57.50;;
46753;SDS011;32500;50.620;3.400;2024-02-16T08:10:29;152.32;;;57.95;;
46753;SDS011;32500;50.620;3.400;2024-02-16T08:12:54;149.20;;;57.60;;
46753;SDS011;32500;50.620;3.400;2024-02-16T08:15:21;153.38;;;57.95;;
46753;SDS011;32500;50.620;3.400;2024-02-16T08:17:50;153.10;;;57.88;;
46753;SDS011;32500;50.620;3.400;2024-02-16T08:20:17;152.07;;;57.53;;
46753;SDS011;32500;50.620;3.400;2024-02-16T08:22:42;152.10;;;57.63;;
46753;SDS011;32500;50.620;3.400;2024-02-16T08:25:08;151.65;;;57.97;;
46753;SDS011;32500;50.620;3.400;2024-02-16T08:27:34;151.50;;;57.65;;
46753;SDS011;32500;50.620;3.400;2024-02-16T08:30:00;153.18;;;58.45;;
46753;SDS011;32500;50.620;3.400;2024-02-16T08:32:28;153.32;;;57.83;;
46753;SDS011;32500;50.620;3.400;2024-02-16T08:34:54;153.23;;;58.10;;
46753;SDS011;32500;50.620;3.400;2024-02-16T08:37:21;160.32;;;58.10;;
46753;SDS011;32500;50.620;3.400;2024-02-16T08:39:47;149.07;;;57.33;;
46753;SDS011;32500;50.620;3.400;2024-02-16T08:42:13;154.40;;;57.90;;
46753;SDS011;32500;50.620;3.400;2024-02-16T08:44:39;151.60;;;58.15;;
46753;SDS011;32500;50.620;3.400;2024-02-16T08:47:05;157.45;;;57.92;;
46753;SDS011;32500;50.620;3.400;2024-02-16T08:49:32;153.35;;;58.38;;
46753;SDS011;32500;50.620;3.400;2024-02-16T08:51:59;152.60;;;57.78;;
46753;SDS011;32500;50.620;3.400;2024-02-16T08:54:24;151.48;;;58.55;;
46753;SDS011;32500;50.620;3.400;2024-02-16T08:56:50;152.18;;;57.85;;
46753;SDS011;32500;50.620;3.400;2024-02-16T08:59:18;149.32;;;57.50;;
46753;SDS011;32500;50.620;3.400;2024-02-16T09:01:43;151.15;;;58.20;;
46753;SDS011;32500;50.620;3.400;2024-02-16T09:04:09;154.02;;;57.85;;
46753;SDS011;32500;50.620;3.400;2024-02-16T09:06:35;158.10;;;58.17;;
46753;SDS011;32500;50.620;3.400;2024-02-16T09:09:00;158.00;;;58.00;;
46753;SDS011;32500;50.620;3.400;2024-02-16T09:11:26;154.88;;;58.22;;
46753;SDS011;32500;50.620;3.400;2024-02-16T09:13:53;156.48;;;58.35;;
46753;SDS011;32500;50.620;3.400;2024-02-16T09:16:19;154.32;;;58.05;;
46753;SDS011;32500;50.620;3.400;2024-02-16T09:18:45;150.75;;;58.00;;
46753;SDS011;32500;50.620;3.400;2024-02-16T09:21:10;155.77;;;57.88;;
46753;SDS011;32500;50.620;3.400;2024-02-16T09:23:36;150.75;;;58.30;;
46753;SDS011;32500;50.620;3.400;2024-02-16T09:26:02;155.38;;;58.45;;
46753;SDS011;32500;50.620;3.400;2024-02-16T09:28:28;152.07;;;58.30;;
46753;SDS011;32500;50.620;3.400;2024-02-16T09:30:55;150.55;;;57.95;;
46753;SDS011;32500;50.620;3.400;2024-02-16T09:33:21;156.15;;;58.72;;
46753;SDS011;32500;50.620;3.400;2024-02-16T09:35:50;154.40;;;60.33;;
46753;SDS011;32500;50.620;3.400;2024-02-16T09:38:16;157.48;;;61.50;;
46753;SDS011;32500;50.620;3.400;2024-02-16T09:40:42;155.85;;;61.75;;
46753;SDS011;32500;50.620;3.400;2024-02-16T09:43:09;157.30;;;60.95;;
46753;SDS011;32500;50.620;3.400;2024-02-16T09:45:34;158.23;;;61.28;;
46753;SDS011;32500;50.620;3.400;2024-02-16T09:48:00;157.02;;;60.97;;
46753;SDS011;32500;50.620;3.400;2024-02-16T09:50:27;162.38;;;61.13;;
46753;SDS011;32500;50.620;3.400;2024-02-16T09:52:54;156.73;;;60.70;;
46753;SDS011;32500;50.620;3.400;2024-02-16T09:55:21;162.10;;;61.38;;
46753;SDS011;32500;50.620;3.400;2024-02-16T09:57:57;154.73;;;60.28;;
46753;SDS011;32500;50.620;3.400;2024-02-16T10:00:24;157.40;;;60.78;;
46753;SDS011;32500;50.620;3.400;2024-02-16T10:02:49;166.00;;;60.97;;
46753;SDS011;32500;50.620;3.400;2024-02-16T10:05:16;155.57;;;60.53;;
46753;SDS011;32500;50.620;3.400;2024-02-16T10:07:43;156.07;;;60.30;;
46753;SDS011;32500;50.620;3.400;2024-02-16T10:10:25;155.43;;;60.70;;
46753;SDS011;32500;50.620;3.400;2024-02-16T10:13:03;168.20;;;69.13;;
46753;SDS011;32500;50.620;3.400;2024-02-16T10:15:29;165.23;;;68.70;;
46753;SDS011;32500;50.620;3.400;2024-02-16T10:17:59;162.60;;;66.78;;
46753;SDS011;32500;50.620;3.400;2024-02-16T10:20:25;165.18;;;67.30;;
46753;SDS011;32500;50.620;3.400;2024-02-16T10:23:12;166.27;;;67.20;;
46753;SDS011;32500;50.620;3.400;2024-02-16T10:25:40;164.13;;;66.15;;
46753;SDS011;32500;50.620;3.400;2024-02-16T10:28:06;165.93;;;65.10;;
46753;SDS011;32500;50.620;3.400;2024-02-16T10:30:39;158.75;;;65.05;;
46753;SDS011;32500;50.620;3.400;2024-02-16T10:33:07;165.20;;;64.72;;
46753;SDS011;32500;50.620;3.400;2024-02-16T10:35:36;166.18;;;66.68;;
46753;SDS011;32500;50.620;3.400;2024-02-16T10:38:03;165.82;;;67.68;;
46753;SDS011;32500;50.620;3.400;2024-02-16T10:40:34;170.40;;;69.15;;
46753;SDS011;32500;50.620;3.400;2024-02-16T10:43:05;165.70;;;67.07;;
46753;SDS011;32500;50.620;3.400;2024-02-16T10:45:33;166.85;;;67.53;;
46753;SDS011;32500;50.620;3.400;2024-02-16T10:48:01;166.43;;;66.90;;
46753;SDS011;32500;50.620;3.400;2024-02-16T10:50:34;160.15;;;65.20;;
46753;SDS011;32500;50.620;3.400;2024-02-16T10:53:04;161.40;;;64.50;;
46753;SDS011;32500;50.620;3.400;2024-02-16T10:55:37;160.43;;;64.30;;
46753;SDS011;32500;50.620;3.400;2024-02-16T10:58:02;161.00;;;64.70;;
46753;SDS011;32500;50.620;3.400;2024-02-16T11:00:28;160.85;;;64.10;;
46753;SDS011;32500;50.620;3.400;2024-02-16T11:02:57;165.75;;;67.45;;
46753;SDS011;32500;50.620;3.400;2024-02-16T11:05:33;169.18;;;69.70;;
46753;SDS011;32500;50.620;3.400;2024-02-16T11:08:14;167.73;;;67.65;;
46753;SDS011;32500;50.620;3.400;2024-02-16T11:10:40;163.10;;;65.25;;
46753;SDS011;32500;50.620;3.400;2024-02-16T11:13:06;160.48;;;64.90;;
46753;SDS011;32500;50.620;3.400;2024-02-16T11:15:33;160.88;;;63.60;;
46753;SDS011;32500;50.620;3.400;2024-02-16T11:18:00;161.25;;;63.85;;
46753;SDS011;32500;50.620;3.400;2024-02-16T11:20:27;160.57;;;63.45;;
46753;SDS011;32500;50.620;3.400;2024-02-16T11:22:53;156.68;;;62.80;;
46753;SDS011;32500;50.620;3.400;2024-02-16T11:25:30;155.07;;;62.20;;
46753;SDS011;32500;50.620;3.400;2024-02-16T11:27:57;162.07;;;62.45;;
46753;SDS011;32500;50.620;3.400;2024-02-16T11:30:23;156.80;;;62.22;;
46753;SDS011;32500;50.620;3.400;2024-02-16T11:32:50;155.63;;;62.55;;
46753;SDS011;32500;50.620;3.400;2024-02-16T11:35:16;158.75;;;62.17;;
46753;SDS011;32500;50.620;3.400;2024-02-16T11:37:42;156.30;;;62.55;;
46753;SDS011;32500;50.620;3.400;2024-02-16T11:40:11;155.10;;;61.65;;
46753;SDS011;32500;50.620;3.400;2024-02-16T11:42:37;158.95;;;62.22;;
46753;SDS011;32500;50.620;3.400;2024-02-16T11:45:03;155.23;;;61.33;;
46753;SDS011;32500;50.620;3.400;2024-02-16T11:47:29;156.25;;;62.70;;
46753;SDS011;32500;50.620;3.400;2024-02-16T11:50:04;157.98;;;62.05;;
46753;SDS011;32500;50.620;3.400;2024-02-16T11:52:31;157.25;;;61.22;;
46753;SDS011;32500;50.620;3.400;2024-02-16T11:54:57;161.27;;;61.63;;
46753;SDS011;32500;50.620;3.400;2024-02-16T11:57:26;159.90;;;62.53;;
46753;SDS011;32500;50.620;3.400;2024-02-16T11:59:53;160.13;;;63.28;;
46753;SDS011;32500;50.620;3.400;2024-02-16T12:02:19;169.30;;;69.88;;
46753;SDS011;32500;50.620;3.400;2024-02-16T12:04:56;168.88;;;70.05;;
46753;SDS011;32500;50.620;3.400;2024-02-16T12:07:25;163.77;;;66.75;;
46753;SDS011;32500;50.620;3.400;2024-02-16T12:09:59;164.73;;;66.53;;
46753;SDS011;32500;50.620;3.400;2024-02-16T12:12:25;160.55;;;66.15;;
46753;SDS011;32500;50.620;3.400;2024-02-16T12:14:52;159.60;;;65.05;;
46753;SDS011;32500;50.620;3.400;2024-02-16T12:17:19;159.50;;;65.65;;
46753;SDS011;32500;50.620;3.400;2024-02-16T12:19:45;159.65;;;65.65;;
46753;SDS011;32500;50.620;3.400;2024-02-16T12:22:16;160.50;;;65.97;;
46753;SDS011;32500;50.620;3.400;2024-02-16T12:27:09;161.30;;;64.18;;
46753;SDS011;32500;50.620;3.400;2024-02-16T12:29:35;159.02;;;64.63;;
46753;SDS011;32500;50.620;3.400;2024-02-16T12:32:01;162.75;;;64.57;;
46753;SDS011;32500;50.620;3.400;2024-02-16T12:34:26;158.60;;;64.18;;
46753;SDS011;32500;50.620;3.400;2024-02-16T12:36:53;161.32;;;63.55;;
46753;SDS011;32500;50.620;3.400;2024-02-16T12:39:18;160.55;;;64.93;;
46753;SDS011;32500;50.620;3.400;2024-02-16T12:41:44;168.75;;;64.65;;
46753;SDS011;32500;50.620;3.400;2024-02-16T12:44:11;157.05;;;62.58;;
46753;SDS011;32500;50.620;3.400;2024-02-16T12:46:37;160.10;;;63.40;;
46753;SDS011;32500;50.620;3.400;2024-02-16T12:49:03;157.18;;;63.08;;
46753;SDS011;32500;50.620;3.400;2024-02-16T12:51:29;157.93;;;63.08;;
46753;SDS011;32500;50.620;3.400;2024-02-16T12:53:55;159.13;;;62.75;;
46753;SDS011;32500;50.620;3.400;2024-02-16T12:56:21;158.30;;;62.55;;
46753;SDS011;32500;50.620;3.400;2024-02-16T12:58:46;158.38;;;63.08;;
46753;SDS011;32500;50.620;3.400;2024-02-16T13:01:13;157.57;;;63.15;;
46753;SDS011;32500;50.620;3.400;2024-02-16T13:03:39;157.38;;;62.78;;
46753;SDS011;32500;50.620;3.400;2024-02-16T13:06:04;158.82;;;62.67;;
46753;SDS011;32500;50.620;3.400;2024-02-16T13:08:31;155.98;;;61.47;;
46753;SDS011;32500;50.620;3.400;2024-02-16T13:10:57;155.60;;;61.85;;
46753;SDS011;32500;50.620;3.400;2024-02-16T13:13:22;156.63;;;62.03;;
46753;SDS011;32500;50.620;3.400;2024-02-16T13:15:48;159.85;;;61.97;;
46753;SDS011;32500;50.620;3.400;2024-02-16T13:18:14;156.88;;;61.40;;
46753;SDS011;32500;50.620;3.400;2024-02-16T13:20:41;159.38;;;61.42;;
46753;SDS011;32500;50.620;3.400;2024-02-16T13:23:09;159.40;;;62.35;;
46753;SDS011;32500;50.620;3.400;2024-02-16T13:25:35;158.25;;;62.08;;
46753;SDS011;32500;50.620;3.400;2024-02-16T13:28:01;156.45;;;61.92;;
46753;SDS011;32500;50.620;3.400;2024-02-16T13:30:27;157.45;;;61.78;;
46753;SDS011;32500;50.620;3.400;2024-02-16T13:32:53;154.80;;;61.28;;
46753;SDS011;32500;50.620;3.400;2024-02-16T13:35:19;155.88;;;60.63;;
46753;SDS011;32500;50.620;3.400;2024-02-16T13:37:45;156.63;;;61.28;;
46753;SDS011;32500;50.620;3.400;2024-02-16T13:40:11;158.93;;;63.10;;
46753;SDS011;32500;50.620;3.400;2024-02-16T13:42:40;163.57;;;62.47;;
46753;SDS011;32500;50.620;3.400;2024-02-16T13:45:07;157.13;;;61.65;;
46753;SDS011;32500;50.620;3.400;2024-02-16T13:47:33;158.98;;;62.42;;
46753;SDS011;32500;50.620;3.400;2024-02-16T13:49:59;159.52;;;61.85;;
46753;SDS011;32500;50.620;3.400;2024-02-16T13:52:25;156.90;;;61.75;;
46753;SDS011;32500;50.620;3.400;2024-02-16T13:54:51;158.18;;;61.83;;
46753;SDS011;32500;50.620;3.400;2024-02-16T13:57:17;158.85;;;62.03;;
46753;SDS011;32500;50.620;3.400;2024-02-16T13:59:44;157.38;;;61.70;;
46753;SDS011;32500;50.620;3.400;2024-02-16T14:02:10;158.80;;;61.33;;
46753;SDS011;32500;50.620;3.400;2024-02-16T14:04:36;157.27;;;61.30;;
46753;SDS011;32500;50.620;3.400;2024-02-16T14:07:02;160.93;;;61.78;;